Time;durP1;ratioP1;P1;durP2;ratioP2;P2;SDS_P1;SDS_P2;PMS_P1;PMS_P2;Temp;Humidity;BMP_temperature;BMP_pressure;BME280_temperature;BME280_humidity;BME280_pressure;Samples;Min_cycle;Max_cycle;Signal;HPM_P1;HPM_P2
2021/12/20 00:00:19;;;;;;;26.98;4.38;;;6.30;99.90;;;;;;5008671;28;20038;-71
2021/12/20 00:02:50;;;;;;;24.00;3.37;;;6.30;99.90;;;;;;5024806;28;20169;-71
2021/12/20 00:05:18;;;;;;;19.20;4.38;;;6.30;99.90;;;;;;4992090;28;20466;-71
2021/12/20 00:07:44;;;;;;;22.45;4.28;;;6.30;99.90;;;;;;5024604;28;20046;-71
2021/12/20 00:10:11;;;;;;;23.45;3.95;;;6.30;99.90;;;;;;4991842;28;20215;-71
2021/12/20 00:12:37;;;;;;;30.40;5.43;;;6.30;99.90;;;;;;5005777;28;20485;-71
2021/12/20 00:15:03;;;;;;;20.45;4.32;;;6.30;99.90;;;;;;5008371;28;20311;-71
2021/12/20 00:17:29;;;;;;;23.35;4.32;;;6.30;99.90;;;;;;5007962;28;20061;-72
2021/12/20 00:19:55;;;;;;;28.02;4.72;;;6.30;99.90;;;;;;5024295;28;20053;-71
2021/12/20 00:22:21;;;;;;;26.13;5.63;;;6.30;99.90;;;;;;5024438;28;20368;-71
2021/12/20 00:24:47;;;;;;;24.67;5.28;;;6.30;99.90;;;;;;4991846;28;20467;-71
2021/12/20 00:27:14;;;;;;;18.00;3.60;;;6.20;99.90;;;;;;4991591;28;20119;-71
2021/12/20 00:29:40;;;;;;;27.90;3.97;;;6.20;99.90;;;;;;5024521;28;20505;-71
2021/12/20 00:32:06;;;;;;;23.17;4.35;;;6.20;99.90;;;;;;4991831;28;20082;-71
2021/12/20 00:34:33;;;;;;;22.35;4.65;;;6.20;99.90;;;;;;5007831;28;20052;-71
2021/12/20 00:37:05;;;;;;;22.25;4.93;;;6.20;99.90;;;;;;4991428;28;20049;-71
2021/12/20 00:42:15;;;;;;;19.52;4.03;;;6.20;99.90;;;;;;5002330;28;20128;-71
2021/12/20 00:44:42;;;;;;;21.02;4.65;;;6.20;99.90;;;;;;4972291;28;20057;-71
2021/12/20 00:47:08;;;;;;;21.92;4.60;;;6.20;99.90;;;;;;5004233;28;20044;-71
2021/12/20 00:49:34;;;;;;;20.80;4.82;;;6.10;99.90;;;;;;5004664;28;20043;-71
2021/12/20 00:51:59;;;;;;;18.10;3.67;;;6.10;99.90;;;;;;5004302;28;20498;-71
2021/12/20 00:54:25;;;;;;;21.02;4.75;;;6.10;99.90;;;;;;4971894;28;20141;-71
2021/12/20 00:56:51;;;;;;;24.60;4.20;;;6.10;99.90;;;;;;4971797;28;20054;-71
2021/12/20 00:59:17;;;;;;;28.08;4.07;;;6.10;99.90;;;;;;4955808;28;20057;-71
2021/12/20 01:01:43;;;;;;;21.33;3.80;;;6.00;99.90;;;;;;4988305;28;20046;-71
2021/12/20 01:04:09;;;;;;;18.83;4.57;;;6.00;99.90;;;;;;4971916;28;20038;-71
2021/12/20 01:06:35;;;;;;;25.25;4.50;;;6.00;99.90;;;;;;5004489;28;20049;-71
2021/12/20 01:09:02;;;;;;;22.42;4.70;;;6.00;99.90;;;;;;4988248;28;20042;-71
2021/12/20 01:11:29;;;;;;;17.70;3.40;;;6.00;99.90;;;;;;5004114;28;20081;-71
2021/12/20 01:13:57;;;;;;;26.15;6.45;;;6.00;99.90;;;;;;4969644;28;20078;-71
2021/12/20 01:16:30;;;;;;;25.67;4.15;;;6.00;99.90;;;;;;4971388;28;20069;-71
2021/12/20 01:18:57;;;;;;;24.38;4.82;;;6.00;99.90;;;;;;4988028;28;20137;-71
2021/12/20 01:21:24;;;;;;;18.95;3.55;;;6.00;99.90;;;;;;4971558;28;20050;-71
2021/12/20 01:23:50;;;;;;;19.20;4.07;;;6.00;99.90;;;;;;4971658;28;20076;-71
2021/12/20 01:26:15;;;;;;;16.88;3.42;;;6.00;99.90;;;;;;4971990;28;20125;-71
2021/12/20 01:28:43;;;;;;;25.25;5.05;;;6.00;99.90;;;;;;4988092;28;20530;-71
2021/12/20 01:31:10;;;;;;;20.25;4.68;;;6.10;99.90;;;;;;5004737;28;20042;-71
2021/12/20 01:33:36;;;;;;;23.00;4.00;;;6.00;99.90;;;;;;4991035;28;20535;-71
2021/12/20 01:36:02;;;;;;;25.73;5.15;;;6.00;99.90;;;;;;4990927;28;20046;-71
2021/12/20 01:38:28;;;;;;;22.70;4.40;;;6.00;99.90;;;;;;4979900;28;20405;-71
2021/12/20 01:40:54;;;;;;;20.17;3.80;;;6.00;99.90;;;;;;4978101;28;20053;-71
2021/12/20 01:43:20;;;;;;;23.80;4.15;;;6.10;99.90;;;;;;5024356;28;20046;-71
2021/12/20 01:45:50;;;;;;;21.67;3.97;;;6.00;99.90;;;;;;4994036;28;20042;-71
2021/12/20 01:48:20;;;;;;;16.17;3.15;;;6.00;99.90;;;;;;4994092;28;20132;-72
2021/12/20 01:51:14;;;;;;;;;;;6.10;99.90;;;;;;5010669;28;20038;-71
2021/12/20 01:53:37;;;;;;;24.85;4.22;;;6.00;99.90;;;;;;4993981;28;20285;-71
2021/12/20 01:56:04;;;;;;;25.35;3.92;;;6.00;99.90;;;;;;4977733;28;20085;-71
2021/12/20 01:58:31;;;;;;;16.75;3.83;;;6.00;99.90;;;;;;4994208;28;20108;-71
2021/12/20 02:01:03;;;;;;;18.55;4.78;;;6.00;99.90;;;;;;4993757;28;20045;-71
2021/12/20 02:03:31;;;;;;;21.80;3.78;;;6.00;99.90;;;;;;5026692;28;20402;-71
2021/12/20 02:05:59;;;;;;;22.67;4.65;;;6.00;99.90;;;;;;4993795;28;20203;-71
2021/12/20 02:08:28;;;;;;;20.42;4.20;;;6.00;99.90;;;;;;4993601;28;20554;-71
2021/12/20 02:10:58;;;;;;;19.63;3.75;;;6.00;99.90;;;;;;5026733;28;20120;-71
2021/12/20 02:13:28;;;;;;;18.83;4.25;;;6.00;99.90;;;;;;4991311;28;20050;-71
2021/12/20 02:15:58;;;;;;;23.85;3.20;;;6.00;99.90;;;;;;4993685;28;20057;-71
2021/12/20 02:18:24;;;;;;;20.67;4.22;;;6.00;99.90;;;;;;5026224;28;20074;-71
2021/12/20 02:20:50;;;;;;;34.33;7.50;;;5.90;99.90;;;;;;4993537;28;20087;-71
2021/12/20 02:23:16;;;;;;;22.00;3.97;;;5.90;99.90;;;;;;5009662;28;20049;-71
2021/12/20 02:25:42;;;;;;;29.35;3.80;;;5.90;99.90;;;;;;4993889;28;20034;-71
2021/12/20 02:28:11;;;;;;;31.38;6.18;;;5.90;99.90;;;;;;4993624;28;20493;-71
2021/12/20 02:38:20;;;;;;;23.33;3.55;;;5.90;99.90;;;;;;4989340;28;20053;-69
2021/12/20 02:40:46;;;;;;;18.35;3.17;;;5.90;99.90;;;;;;5006288;28;20513;-69
2021/12/20 02:43:16;;;;;;;22.85;3.78;;;5.90;99.90;;;;;;4955043;28;20050;-67
2021/12/20 02:45:43;;;;;;;19.95;4.75;;;6.00;99.90;;;;;;5006600;28;20118;-68
2021/12/20 02:48:09;;;;;;;16.63;3.25;;;5.90;99.90;;;;;;4957760;28;20065;-69
2021/12/20 02:50:35;;;;;;;23.52;3.58;;;5.90;99.90;;;;;;4973645;28;20498;-69
2021/12/20 02:53:01;;;;;;;9.80;2.30;;;5.90;99.90;;;;;;5006362;28;20049;-69
2021/12/20 02:55:26;;;;;;;14.80;2.80;;;5.90;99.90;;;;;;4973794;28;20050;-69
2021/12/20 02:57:52;;;;;;;12.93;2.63;;;5.90;99.90;;;;;;4973485;28;20046;-68
2021/12/20 03:00:18;;;;;;;12.10;2.55;;;6.00;99.90;;;;;;4989917;28;20098;-68
2021/12/20 03:02:44;;;;;;;11.80;2.97;;;6.00;99.90;;;;;;4973190;28;20121;-68
2021/12/20 03:05:12;;;;;;;14.73;2.17;;;6.00;99.90;;;;;;5006231;28;20038;-68
2021/12/20 03:07:50;;;;;;;14.05;2.45;;;5.90;99.90;;;;;;4989778;28;20125;-69
2021/12/20 03:10:19;;;;;;;16.58;2.67;;;6.00;99.90;;;;;;5006119;28;20074;-69
2021/12/20 03:12:48;;;;;;;10.13;2.28;;;5.90;99.90;;;;;;5003608;28;20109;-69
2021/12/20 03:15:20;;;;;;;17.70;3.90;;;5.90;99.90;;;;;;4989371;28;20050;-69
2021/12/20 03:17:46;;;;;;;10.90;3.13;;;5.90;99.90;;;;;;4989230;28;20456;-69
2021/12/20 03:20:14;;;;;;;17.88;3.30;;;5.90;99.90;;;;;;5005639;28;20111;-69
2021/12/20 03:22:43;;;;;;;12.85;2.05;;;5.90;99.90;;;;;;4973262;28;20053;-70
2021/12/20 03:25:09;;;;;;;9.40;1.98;;;5.90;99.90;;;;;;4973493;28;20039;-70
2021/12/20 03:27:35;;;;;;;13.60;1.77;;;5.90;99.90;;;;;;4989455;28;20077;-69
2021/12/20 03:30:03;;;;;;;10.88;1.92;;;5.80;99.90;;;;;;4989181;28;20042;-69
2021/12/20 03:32:28;;;;;;;12.25;3.78;;;5.80;99.90;;;;;;5005514;28;20047;-69
2021/12/20 03:34:54;;;;;;;15.75;2.75;;;5.80;99.90;;;;;;4956882;28;20046;-69
2021/12/20 03:37:20;;;;;;;10.20;2.00;;;5.80;99.90;;;;;;4973230;28;20125;-69
2021/12/20 03:39:46;;;;;;;9.75;1.85;;;5.80;99.90;;;;;;5004617;28;20514;-69
2021/12/20 03:42:12;;;;;;;12.55;3.63;;;5.70;99.90;;;;;;5006234;28;20183;-69
2021/12/20 03:44:43;;;;;;;11.07;2.15;;;5.70;99.90;;;;;;5008724;28;20130;-69
2021/12/20 03:47:09;;;;;;;6.88;2.03;;;5.70;99.90;;;;;;4976441;28;20398;-69
2021/12/20 03:49:35;;;;;;;7.60;1.60;;;5.60;99.90;;;;;;4992380;28;20073;-69
2021/12/20 03:52:04;;;;;;;13.02;2.45;;;5.60;99.90;;;;;;4992295;28;20146;-69
2021/12/20 03:54:31;;;;;;;12.07;2.03;;;5.60;99.90;;;;;;4991305;28;20053;-70
2021/12/20 03:56:56;;;;;;;12.45;2.22;;;5.60;99.90;;;;;;4992278;28;20069;-69
2021/12/20 03:59:22;;;;;;;9.60;1.98;;;5.60;99.90;;;;;;4992185;28;20041;-70
2021/12/20 04:01:49;;;;;;;14.48;2.83;;;5.60;99.90;;;;;;4991925;28;20038;-70
2021/12/20 04:04:15;;;;;;;8.82;1.75;;;5.50;99.90;;;;;;4992056;28;20159;-69
2021/12/20 04:06:41;;;;;;;9.77;1.80;;;5.50;99.90;;;;;;4992269;28;20124;-69
2021/12/20 04:09:07;;;;;;;10.48;1.67;;;5.50;99.90;;;;;;5024597;28;20537;-69
2021/12/20 04:11:33;;;;;;;10.55;2.03;;;5.50;99.90;;;;;;4991830;28;20064;-70
2021/12/20 04:13:59;;;;;;;5.93;1.60;;;5.50;99.90;;;;;;4989590;28;20046;-69
2021/12/20 04:16:25;;;;;;;7.80;2.72;;;5.40;99.90;;;;;;5007960;28;20137;-69
2021/12/20 04:18:51;;;;;;;10.57;1.83;;;5.40;99.90;;;;;;4992055;28;20046;-70
2021/12/20 04:21:17;;;;;;;8.52;1.65;;;5.40;99.90;;;;;;5024725;28;20050;-69
2021/12/20 04:23:43;;;;;;;7.18;2.15;;;5.30;99.90;;;;;;5007978;28;20489;-69
2021/12/20 04:26:09;;;;;;;8.15;1.70;;;5.30;99.90;;;;;;5008221;28;20038;-70
2021/12/20 04:28:35;;;;;;;9.95;2.38;;;5.20;99.90;;;;;;5024531;28;20070;-69
2021/12/20 04:31:01;;;;;;;14.30;2.28;;;5.20;99.90;;;;;;4991800;28;20049;-69
2021/12/20 04:33:26;;;;;;;12.82;2.25;;;5.10;99.90;;;;;;4991726;28;20129;-70
2021/12/20 04:35:52;;;;;;;9.93;2.05;;;5.10;99.90;;;;;;4991678;28;20420;-70
2021/12/20 04:38:19;;;;;;;15.32;2.97;;;5.10;99.90;;;;;;5007288;28;20049;-70
2021/12/20 04:40:45;;;;;;;9.77;1.98;;;5.10;99.90;;;;;;4991697;28;20064;-69
2021/12/20 04:43:11;;;;;;;11.43;2.00;;;5.10;99.90;;;;;;4989109;28;20046;-69
2021/12/20 04:45:37;;;;;;;11.93;1.98;;;5.10;99.90;;;;;;4991470;28;20598;-69
2021/12/20 04:48:04;;;;;;;9.73;1.73;;;5.00;99.90;;;;;;4991547;28;20049;-69
2021/12/20 04:50:30;;;;;;;9.50;2.05;;;5.00;99.90;;;;;;4991329;28;20038;-69
2021/12/20 04:52:57;;;;;;;7.57;2.08;;;5.00;99.90;;;;;;4991511;28;20057;-69
2021/12/20 04:55:25;;;;;;;10.27;2.08;;;5.00;99.90;;;;;;4975196;28;20587;-69
2021/12/20 04:57:52;;;;;;;9.27;1.80;;;4.90;99.90;;;;;;4991559;28;20050;-69
2021/12/20 05:00:22;;;;;;;13.48;2.38;;;4.80;99.90;;;;;;4991361;28;20050;-69
2021/12/20 05:02:48;;;;;;;14.88;2.10;;;4.80;99.90;;;;;;4991281;28;20042;-69
2021/12/20 05:05:16;;;;;;;12.80;2.05;;;4.70;99.90;;;;;;4991212;28;20042;-69
2021/12/20 05:07:44;;;;;;;9.60;1.83;;;4.60;99.90;;;;;;4994633;28;20049;-69
2021/12/20 05:10:13;;;;;;;8.50;1.88;;;4.50;99.90;;;;;;4994423;28;20073;-69
2021/12/20 05:12:40;;;;;;;10.15;1.50;;;4.50;99.90;;;;;;4992433;28;20152;-69
2021/12/20 05:15:07;;;;;;;8.35;1.83;;;4.40;99.90;;;;;;4978175;28;20128;-69
2021/12/20 05:17:34;;;;;;;11.80;2.00;;;4.40;99.90;;;;;;4976684;28;20062;-69
2021/12/20 05:20:01;;;;;;;9.95;2.03;;;4.40;99.90;;;;;;4971732;28;20080;-69
2021/12/20 05:22:27;;;;;;;11.23;1.50;;;4.30;99.90;;;;;;4971798;28;20126;-69
2021/12/20 05:24:53;;;;;;;13.43;2.67;;;4.30;99.90;;;;;;4956066;28;20522;-69
2021/12/20 05:27:18;;;;;;;10.43;1.45;;;4.30;99.90;;;;;;4971651;28;20074;-69
2021/12/20 05:29:44;;;;;;;7.72;1.60;;;4.30;99.90;;;;;;4955749;28;20295;-69
2021/12/20 05:32:10;;;;;;;12.65;1.77;;;4.30;99.90;;;;;;4971635;28;20450;-69
2021/12/20 05:34:36;;;;;;;9.38;1.63;;;4.20;99.90;;;;;;4971460;28;20054;-69
2021/12/20 05:37:02;;;;;;;9.98;1.60;;;4.20;99.90;;;;;;4971546;28;20042;-69
2021/12/20 05:39:28;;;;;;;15.60;1.98;;;4.30;99.90;;;;;;4971269;28;20089;-69
2021/12/20 05:41:54;;;;;;;7.32;1.17;;;4.30;99.90;;;;;;4971590;28;20082;-69
2021/12/20 05:44:20;;;;;;;9.80;1.60;;;4.30;99.90;;;;;;4953223;28;20467;-69
2021/12/20 05:46:45;;;;;;;10.95;1.48;;;4.30;99.90;;;;;;4971471;28;20082;-69
2021/12/20 05:49:11;;;;;;;9.32;1.25;;;4.40;99.90;;;;;;4971352;28;20104;-69
2021/12/20 05:51:37;;;;;;;8.07;1.73;;;4.40;99.90;;;;;;4971292;28;20130;-69
2021/12/20 05:54:03;;;;;;;8.77;2.53;;;4.40;99.90;;;;;;4971165;28;20046;-69
2021/12/20 05:56:29;;;;;;;12.48;2.08;;;4.40;99.90;;;;;;4955302;28;20043;-69
2021/12/20 05:58:54;;;;;;;9.10;2.28;;;4.40;99.90;;;;;;4971116;28;20047;-69
2021/12/20 06:01:20;;;;;;;6.20;1.17;;;4.40;99.90;;;;;;4972638;28;20074;-69
2021/12/20 06:03:46;;;;;;;5.78;1.52;;;4.40;99.90;;;;;;4971341;28;20555;-69
2021/12/20 06:06:12;;;;;;;8.27;1.58;;;4.40;99.90;;;;;;4971293;28;20128;-69
2021/12/20 06:08:38;;;;;;;9.80;1.48;;;4.40;99.90;;;;;;4954963;28;20047;-69
2021/12/20 06:11:04;;;;;;;6.22;1.20;;;4.40;99.90;;;;;;4971254;28;20058;-69
2021/12/20 06:13:30;;;;;;;10.63;1.85;;;4.40;99.90;;;;;;4952602;28;20100;-69
2021/12/20 06:15:55;;;;;;;5.10;1.90;;;4.40;99.90;;;;;;4973724;28;20047;-69
2021/12/20 06:18:21;;;;;;;11.02;2.08;;;4.50;99.90;;;;;;4993452;28;20056;-69
2021/12/20 06:20:47;;;;;;;8.57;1.88;;;4.50;99.90;;;;;;5026441;28;20048;-69
2021/12/20 06:23:13;;;;;;;5.97;1.70;;;4.50;99.90;;;;;;5026300;28;20048;-69
2021/12/20 06:25:39;;;;;;;8.18;1.90;;;4.50;99.90;;;;;;4993380;28;20038;-69
2021/12/20 06:28:05;;;;;;;8.35;2.05;;;4.60;99.90;;;;;;5009722;28;20055;-69
2021/12/20 06:30:31;;;;;;;12.48;1.92;;;4.60;99.90;;;;;;4993356;28;20045;-69
2021/12/20 06:32:57;;;;;;;13.95;2.05;;;4.70;99.90;;;;;;5009765;28;20046;-69
2021/12/20 06:35:22;;;;;;;10.38;1.75;;;4.70;99.90;;;;;;4993467;28;20091;-69
2021/12/20 06:37:59;;;;;;;11.52;1.67;;;4.70;99.90;;;;;;4993245;28;20476;-69
2021/12/20 06:40:25;;;;;;;9.45;1.55;;;4.70;99.90;;;;;;5075475;28;20123;-69
2021/12/20 06:42:51;;;;;;;9.35;1.73;;;4.80;99.90;;;;;;5090127;28;20119;-69
2021/12/20 06:45:17;;;;;;;11.40;1.98;;;4.80;99.90;;;;;;5075663;28;20132;-69
2021/12/20 06:47:43;;;;;;;10.57;1.70;;;4.80;99.90;;;;;;5075680;28;20503;-69
2021/12/20 06:50:10;;;;;;;6.90;1.90;;;4.80;99.90;;;;;;5075222;28;20049;-69
2021/12/20 06:52:36;;;;;;;5.15;1.50;;;4.80;99.90;;;;;;5075391;28;20040;-69
2021/12/20 06:55:02;;;;;;;5.45;1.40;;;4.80;99.90;;;;;;5075529;28;20040;-69
2021/12/20 06:57:28;;;;;;;12.07;2.03;;;4.80;99.90;;;;;;5109569;28;20096;-69
2021/12/20 06:59:54;;;;;;;9.77;1.95;;;4.70;99.90;;;;;;5075045;28;20056;-69
2021/12/20 07:02:19;;;;;;;9.07;1.85;;;4.70;99.90;;;;;;5075135;28;20055;-69
2021/12/20 07:04:45;;;;;;;11.07;1.70;;;4.70;99.90;;;;;;5075290;28;20028;-69
2021/12/20 07:07:11;;;;;;;9.30;1.33;;;4.70;99.90;;;;;;5075138;28;20542;-69
2021/12/20 07:09:37;;;;;;;8.68;1.60;;;4.70;99.90;;;;;;5075332;28;20140;-69
2021/12/20 07:12:03;;;;;;;6.07;1.35;;;4.80;99.90;;;;;;5074794;28;20448;-69
2021/12/20 07:14:30;;;;;;;7.45;1.73;;;4.70;99.90;;;;;;5090306;28;20047;-69
2021/12/20 07:16:56;;;;;;;6.32;1.13;;;4.70;99.90;;;;;;5074621;28;20060;-69
2021/12/20 07:19:23;;;;;;;8.65;2.25;;;4.70;99.90;;;;;;5058088;28;20054;-69
2021/12/20 07:21:49;;;;;;;7.43;1.88;;;4.70;99.90;;;;;;5074552;28;20123;-69
2021/12/20 07:24:15;;;;;;;8.75;1.70;;;4.70;99.90;;;;;;5075008;28;20044;-69
2021/12/20 07:26:42;;;;;;;5.78;1.50;;;4.80;99.90;;;;;;5108865;28;20113;-69
2021/12/20 07:29:09;;;;;;;7.53;1.55;;;4.80;99.90;;;;;;5074041;28;20048;-69
2021/12/20 07:31:35;;;;;;;14.98;2.08;;;4.70;99.90;;;;;;5074493;28;20047;-69
2021/12/20 07:34:01;;;;;;;9.63;1.33;;;4.70;99.90;;;;;;5058112;28;20051;-69
2021/12/20 07:36:26;;;;;;;25.00;12.07;;;4.80;99.90;;;;;;5108323;28;20044;-69
2021/12/20 07:38:52;;;;;;;16.38;10.38;;;4.80;99.90;;;;;;5039948;28;20054;-69
2021/12/20 07:41:20;;;;;;;12.73;6.00;;;4.80;99.90;;;;;;4993951;28;20076;-69
2021/12/20 07:43:47;;;;;;;16.08;7.00;;;4.80;99.90;;;;;;5032045;28;20046;-69
2021/12/20 07:46:14;;;;;;;13.80;7.47;;;4.80;99.90;;;;;;4992346;28;20046;-69
2021/12/20 07:48:40;;;;;;;8.95;4.13;;;4.80;99.90;;;;;;4976922;28;20382;-69
2021/12/20 07:51:06;;;;;;;11.50;5.32;;;4.80;99.90;;;;;;4976742;28;20045;-68
2021/12/20 07:53:32;;;;;;;11.43;3.55;;;4.80;99.90;;;;;;4994249;28;20068;-68
2021/12/20 07:55:58;;;;;;;7.88;3.70;;;4.80;99.90;;;;;;4992753;28;20042;-69
2021/12/20 07:58:24;;;;;;;11.77;2.92;;;4.90;99.90;;;;;;4976665;28;20133;-69
2021/12/20 08:00:50;;;;;;;10.65;3.45;;;4.80;99.90;;;;;;5070653;28;20113;-68
2021/12/20 08:03:16;;;;;;;12.05;3.22;;;4.90;99.90;;;;;;5095057;28;20058;-69
2021/12/20 08:05:42;;;;;;;9.10;2.80;;;4.90;99.90;;;;;;5095054;28;20077;-69
2021/12/20 08:08:08;;;;;;;13.93;2.67;;;4.90;99.90;;;;;;5078492;28;20035;-69
2021/12/20 08:10:34;;;;;;;9.02;2.40;;;4.90;99.90;;;;;;5078323;28;20040;-69
2021/12/20 08:13:01;;;;;;;10.30;2.95;;;4.90;99.90;;;;;;5092984;28;20046;-69
2021/12/20 08:15:27;;;;;;;11.27;2.92;;;4.90;99.90;;;;;;5078060;28;20043;-68
2021/12/20 08:17:54;;;;;;;9.10;2.85;;;4.90;99.90;;;;;;5095006;28;20059;-67
2021/12/20 08:20:21;;;;;;;5.57;2.45;;;5.00;99.90;;;;;;5095401;28;20047;-67
2021/12/20 08:22:47;;;;;;;11.65;2.55;;;5.00;99.90;;;;;;5095014;28;20395;-67
2021/12/20 08:25:15;;;;;;;8.57;2.17;;;5.00;99.90;;;;;;5095088;28;20071;-67
2021/12/20 08:27:42;;;;;;;8.68;2.17;;;5.10;99.90;;;;;;5095291;28;20360;-67
2021/12/20 08:30:09;;;;;;;7.90;2.38;;;5.10;99.90;;;;;;5095088;28;20043;-67
2021/12/20 08:32:36;;;;;;;9.43;2.03;;;5.20;99.90;;;;;;5095054;28;20047;-67
2021/12/20 08:35:03;;;;;;;5.10;1.60;;;5.20;99.90;;;;;;5078083;28;20050;-67
2021/12/20 08:37:29;;;;;;;8.80;2.22;;;5.20;99.90;;;;;;5011775;28;20045;-67
2021/12/20 08:39:55;;;;;;;6.22;1.92;;;5.30;99.90;;;;;;4977109;28;20486;-67
2021/12/20 08:42:21;;;;;;;7.97;1.58;;;5.30;99.90;;;;;;5064911;28;20043;-68
2021/12/20 08:44:47;;;;;;;8.40;2.00;;;5.40;99.90;;;;;;5081924;28;20051;-67
2021/12/20 08:47:14;;;;;;;10.90;2.03;;;5.50;99.90;;;;;;5098897;28;20040;-67
2021/12/20 08:49:40;;;;;;;10.25;2.28;;;5.70;99.90;;;;;;5098939;28;20467;-67
2021/12/20 08:52:06;;;;;;;8.75;2.00;;;6.20;99.90;;;;;;5098746;28;20039;-67
2021/12/20 08:54:32;;;;;;;5.20;1.88;;;6.80;99.90;;;;;;5081862;28;20472;-67
2021/12/20 08:56:58;;;;;;;8.95;2.17;;;7.40;99.90;;;;;;5098806;28;20051;-69
2021/12/20 08:59:24;;;;;;;8.30;1.90;;;8.10;99.90;;;;;;5098747;28;20043;-68
2021/12/20 09:01:51;;;;;;;6.30;1.75;;;8.80;99.90;;;;;;5098692;28;20357;-68
2021/12/20 09:04:17;;;;;;;10.73;2.67;;;9.50;99.90;;;;;;5081875;28;20399;-68
2021/12/20 09:06:43;;;;;;;9.10;2.30;;;10.10;99.90;;;;;;5098430;28;20051;-68
2021/12/20 09:09:12;;;;;;;9.90;2.60;;;10.70;99.90;;;;;;5050950;28;20120;-68
2021/12/20 09:11:38;;;;;;;10.65;2.58;;;11.20;99.90;;;;;;4995705;28;20053;-68
2021/12/20 09:14:05;;;;;;;13.20;2.28;;;11.70;99.90;;;;;;4993229;28;20473;-68
2021/12/20 09:16:31;;;;;;;9.05;2.38;;;12.10;99.90;;;;;;4995173;28;20050;-68
2021/12/20 09:18:57;;;;;;;8.38;2.47;;;12.50;99.90;;;;;;4978989;28;20085;-68
2021/12/20 09:21:24;;;;;;;7.97;2.10;;;12.90;99.90;;;;;;4995303;28;20053;-68
2021/12/20 09:23:50;;;;;;;5.55;1.67;;;13.30;99.90;;;;;;4995378;28;20042;-68
2021/12/20 09:26:16;;;;;;;9.75;1.98;;;13.60;99.90;;;;;;4995517;28;20520;-67
2021/12/20 09:28:42;;;;;;;12.48;2.10;;;13.90;99.90;;;;;;4995021;28;20506;-67
2021/12/20 09:31:09;;;;;;;11.18;2.05;;;14.20;99.90;;;;;;4995505;28;20065;-67
2021/12/20 09:33:35;;;;;;;8.65;2.05;;;14.50;99.90;;;;;;4995145;28;20050;-67
2021/12/20 09:36:01;;;;;;;10.20;2.30;;;14.70;99.90;;;;;;4995467;28;20045;-67
2021/12/20 09:38:29;;;;;;;12.77;2.67;;;15.00;99.90;;;;;;4979054;28;20057;-68
2021/12/20 09:43:43;;;;;;;10.35;2.85;;;15.30;99.90;;;;;;4992608;28;20046;-67
2021/12/20 09:46:09;;;;;;;11.07;2.88;;;15.30;98.40;;;;;;4995157;28;20046;-67
2021/12/20 09:48:35;;;;;;;11.65;3.00;;;15.20;96.60;;;;;;4994915;28;20045;-67
2021/12/20 09:51:02;;;;;;;13.07;2.63;;;15.10;94.00;;;;;;4976942;28;20042;-67
2021/12/20 09:53:28;;;;;;;9.38;2.70;;;15.00;93.50;;;;;;5021057;28;20089;-67
2021/12/20 09:55:57;;;;;;;12.80;2.03;;;15.00;92.60;;;;;;5097529;28;20428;-67
2021/12/20 09:58:25;;;;;;;10.45;2.40;;;15.00;91.40;;;;;;5019612;28;20038;-67
2021/12/20 10:00:52;;;;;;;10.57;2.35;;;14.90;90.00;;;;;;4994732;28;20038;-67
2021/12/20 10:03:23;;;;;;;7.88;2.15;;;14.90;88.60;;;;;;4994433;28;20046;-68
2021/12/20 10:05:54;;;;;;;9.48;2.13;;;14.90;87.00;;;;;;4978547;28;20050;-67
2021/12/20 10:08:26;;;;;;;7.43;2.38;;;14.90;88.20;;;;;;4994414;28;20048;-67
2021/12/20 10:10:52;;;;;;;11.98;2.15;;;15.00;88.60;;;;;;5069230;28;20047;-67
2021/12/20 10:13:27;;;;;;;11.38;2.47;;;15.10;87.90;;;;;;5095200;28;20101;-67
2021/12/20 10:15:54;;;;;;;13.57;3.95;;;15.20;85.20;;;;;;5114193;28;20039;-68
2021/12/20 10:18:20;;;;;;;15.30;3.03;;;15.40;83.80;;;;;;5097447;28;20130;-67
2021/12/20 10:20:57;;;;;;;11.48;2.63;;;15.60;83.80;;;;;;5097427;28;20396;-67
2021/12/20 10:23:26;;;;;;;9.13;1.90;;;15.70;80.60;;;;;;5080139;28;20493;-67
2021/12/20 10:26:09;;;;;;;10.13;2.42;;;15.70;80.70;;;;;;5089769;28;20562;-68
2021/12/20 10:28:37;;;;;;;14.23;2.70;;;15.90;79.80;;;;;;4994267;28;20038;-68
2021/12/20 10:31:09;;;;;;;10.35;2.58;;;16.10;79.40;;;;;;4994423;28;20501;-68
2021/12/20 10:33:35;;;;;;;10.25;2.35;;;16.20;78.60;;;;;;4977948;28;20041;-68
2021/12/20 10:36:12;;;;;;;11.43;2.70;;;16.20;77.90;;;;;;4991995;28;20048;-68
2021/12/20 10:38:43;;;;;;;12.75;2.88;;;16.40;79.10;;;;;;5063280;28;20508;-68
2021/12/20 10:41:16;;;;;;;9.50;2.55;;;16.50;78.50;;;;;;5030580;28;20040;-68
2021/12/20 10:43:51;;;;;;;14.90;3.17;;;16.70;75.60;;;;;;5092937;28;20045;-68
2021/12/20 10:46:28;;;;;;;9.73;2.70;;;17.00;75.90;;;;;;5095922;28;20442;-68
2021/12/20 10:49:14;;;;;;;8.82;3.13;;;16.80;75.00;;;;;;5095804;28;20039;-68
2021/12/20 10:51:59;;;;;;;10.45;2.92;;;16.80;74.50;;;;;;5095753;28;20550;-68
2021/12/20 10:54:31;;;;;;;10.23;2.97;;;16.90;75.20;;;;;;5078593;28;20062;-67
2021/12/20 10:56:58;;;;;;;12.40;2.83;;;16.90;75.90;;;;;;5095607;28;20126;-69
2021/12/20 10:59:26;;;;;;;13.15;3.40;;;17.00;74.90;;;;;;5095440;28;20040;-69
2021/12/20 11:03:08;;;;;;;13.45;2.92;;;17.00;73.80;;;;;;5095418;28;20039;-68
2021/12/20 11:05:01;;;;;;;15.73;3.30;;;16.90;73.20;;;;;;5095439;28;20043;-69
2021/12/20 11:10:00;;;;;;;14.07;3.58;;;16.50;69.70;;;;;;5095334;28;19916;-69
2021/12/20 11:12:31;;;;;;;14.65;3.20;;;16.70;73.80;;;;;;5092825;28;20093;-71
2021/12/20 11:15:07;;;;;;;14.85;3.55;;;17.00;73.60;;;;;;5095147;28;20039;-70
2021/12/20 11:17:33;;;;;;;11.32;3.50;;;17.00;72.80;;;;;;5078151;28;20079;-70
2021/12/20 11:19:59;;;;;;;16.10;3.08;;;17.10;72.00;;;;;;5078318;28;20222;-70
2021/12/20 11:22:27;;;;;;;14.90;4.05;;;17.00;70.70;;;;;;5094940;28;20043;-70
2021/12/20 11:24:58;;;;;;;15.20;4.03;;;16.90;71.00;;;;;;5094991;28;20051;-70
2021/12/20 11:27:29;;;;;;;12.95;3.97;;;16.80;71.70;;;;;;5095064;28;20507;-70
2021/12/20 11:29:57;;;;;;;20.13;4.20;;;16.80;71.60;;;;;;5095087;28;20047;-70
2021/12/20 11:32:24;;;;;;;14.43;4.00;;;16.70;71.60;;;;;;5078096;28;20100;-70
2021/12/20 11:34:50;;;;;;;20.08;4.03;;;16.40;71.50;;;;;;5078021;28;20048;-70
2021/12/20 11:37:20;;;;;;;17.77;4.30;;;16.20;71.70;;;;;;5095194;28;20043;-70
2021/12/20 11:39:47;;;;;;;20.55;4.97;;;16.20;71.50;;;;;;5014777;28;20042;-70
2021/12/20 11:42:14;;;;;;;16.42;4.40;;;16.20;71.00;;;;;;4975032;28;20038;-69
2021/12/20 11:44:42;;;;;;;19.60;4.97;;;16.20;71.30;;;;;;4991533;28;20102;-69
2021/12/20 11:47:36;;;;;;;20.48;4.63;;;16.00;71.10;;;;;;4992567;28;20048;-69
2021/12/20 11:50:09;;;;;;;20.55;4.78;;;15.80;70.50;;;;;;4992506;28;20046;-69
2021/12/20 11:52:37;;;;;;;19.90;4.80;;;15.50;72.40;;;;;;4991998;28;20489;-69
2021/12/20 11:55:22;;;;;;;18.27;4.75;;;15.30;72.60;;;;;;4992349;28;20050;-69
2021/12/20 11:57:52;;;;;;;20.60;4.03;;;15.20;71.70;;;;;;4975993;28;20041;-69
2021/12/20 12:00:22;;;;;;;21.10;5.45;;;14.90;72.90;;;;;;4992104;28;20513;-69
2021/12/20 12:02:51;;;;;;;15.15;4.28;;;14.70;73.40;;;;;;4992041;28;20098;-69
2021/12/20 12:05:39;;;;;;;18.38;4.05;;;14.50;74.20;;;;;;4992160;28;20049;-69
2021/12/20 12:08:30;;;;;;;14.18;4.50;;;14.60;74.30;;;;;;4976268;28;20421;-69
2021/12/20 12:11:00;;;;;;;15.93;3.70;;;14.90;73.70;;;;;;4975720;28;20551;-69
2021/12/20 12:13:29;;;;;;;16.73;4.32;;;14.70;73.40;;;;;;4989522;28;20077;-68
2021/12/20 12:16:01;;;;;;;19.80;3.80;;;14.40;73.60;;;;;;4991289;28;20050;-69
2021/12/20 12:18:48;;;;;;;25.25;4.30;;;14.30;74.10;;;;;;4992215;28;20053;-68
2021/12/20 12:21:36;;;;;;;16.10;3.38;;;14.20;74.00;;;;;;4991768;28;20056;-68
2021/12/20 12:24:05;;;;;;;14.07;3.38;;;13.80;73.60;;;;;;4991952;28;20058;-68
2021/12/20 12:26:32;;;;;;;20.07;4.37;;;13.10;74.90;;;;;;4975566;28;20570;-68
2021/12/20 12:28:59;;;;;;;18.48;4.57;;;12.70;76.30;;;;;;4992012;28;20057;-68
2021/12/20 12:31:47;;;;;;;20.98;4.63;;;12.40;77.40;;;;;;4991583;28;20046;-69
2021/12/20 12:34:13;;;;;;;22.75;4.72;;;12.00;77.90;;;;;;4991522;28;20041;-69
2021/12/20 12:36:41;;;;;;;19.00;4.07;;;11.70;79.40;;;;;;4991599;28;20088;-68
2021/12/20 12:39:26;;;;;;;23.45;4.88;;;11.30;80.10;;;;;;4991573;28;20042;-67
2021/12/20 12:41:56;;;;;;;24.83;4.93;;;11.00;81.70;;;;;;5024586;28;20398;-67
2021/12/20 12:44:29;;;;;;;18.35;4.53;;;10.70;82.80;;;;;;4989369;28;20038;-67
2021/12/20 12:47:03;;;;;;;17.85;4.00;;;10.50;83.70;;;;;;5024295;28;20084;-67
2021/12/20 12:49:32;;;;;;;14.35;4.22;;;10.30;84.30;;;;;;4991369;28;20038;-67
2021/12/20 12:52:05;;;;;;;19.92;4.43;;;10.00;85.00;;;;;;4991630;28;20042;-67
2021/12/20 12:54:36;;;;;;;22.05;4.40;;;9.70;86.00;;;;;;4991550;28;20132;-68
2021/12/20 12:57:25;;;;;;;26.02;5.22;;;9.50;87.70;;;;;;5024247;28;20050;-67
2021/12/20 12:59:54;;;;;;;18.15;3.67;;;9.30;88.70;;;;;;4991311;28;20049;-67
2021/12/20 13:02:27;;;;;;;20.00;3.65;;;9.10;89.50;;;;;;5024246;28;20050;-67
2021/12/20 13:05:00;;;;;;;18.92;3.42;;;8.90;90.10;;;;;;4991507;28;20049;-67
2021/12/20 13:07:27;;;;;;;15.35;3.38;;;8.70;90.20;;;;;;4975305;28;20042;-68